Main page
METAR-TAF:

METAR-TAF

Airports :

Murcia–San Javier Airport

Murcia, Spain

latitude: 37-47N, longitude: 000-48W, elevation: 5 m

Current weather observation

The report was made 19 minutes ago, at 02:00 UTC
Wind 4 kt from the Southwest
Temperature 15°C
Humidity 63%
Pressure 1011 hPa
Visibility 10 km or more
no clouds below 1500 m and no cumulonimbus

METAR: LELC 260200Z AUTO 23004KT CAVOK 15/08 Q1011

Time: 03:19 (02:19 UTC)

Forecast

The report was made 3 hours and 19 minutes ago, at 23:00 UTC
Forecast valid from 26 at 00 UTC to 26 at 24 UTC
Wind 12 kt from the Southwest
Visibility 10 km or more
no clouds below 1500 m and no cumulonimbus
Becoming
from 26 at 03 UTC to 26 at 05 UTC
Wind 16 kt from the Northwest
Temporary
from 26 at 06 UTC to 26 at 15 UTC
Wind 20 kt from the Northwest with gusts up to 33 kt
Becoming
from 26 at 18 UTC to 26 at 20 UTC
Wind 5 kt from the Southwest

TAF: LELC 252300Z 2600/2624 23012KT CAVOK TX22/2613Z TN12/2606Z BECMG 2603/2605 32016KT TEMPO 2606/2615 31020G33KT BECMG 2618/2620 22005KT

Weather observations and forecasts of more than 4000 airports (METAR and TAF reports).

The available stations are represented by yellow and red dots on the map.

Hover mouse over dot to see the name of the station.

Then click to see weather observations and forecasts.

To change the map : click on the green buttons with a black cross to zoom in, on the green button with a dash to zoom out, or on the green arrows for adjacent maps.


METAR-TAF: